Time;durP1;ratioP1;P1;durP2;ratioP2;P2;SDS_P1;SDS_P2;PMS_P1;PMS_P2;Temp;Humidity;BMP_temperature;BMP_pressure;BME280_temperature;BME280_humidity;BME280_pressure;Samples;Min_cycle;Max_cycle;Signal;HPM_P1;HPM_P2
2022/06/25 00:01:20;;;;;;;51.25;48.55;;;;;;;25.56;43.54;100696.69;5040948;28;20033;-76
2022/06/25 00:03:46;;;;;;;51.50;49.00;;;;;;;25.53;43.66;100702.91;5042686;28;20435;-78
2022/06/25 00:06:12;;;;;;;47.28;44.97;;;;;;;25.52;43.75;100701.28;5032520;28;20036;-78
2022/06/25 00:08:38;;;;;;;46.60;44.28;;;;;;;25.49;43.11;100704.75;5032704;28;20033;-78
2022/06/25 00:11:05;;;;;;;50.45;48.05;;;;;;;25.46;43.66;100699.91;5051603;28;20095;-78
2022/06/25 00:13:31;;;;;;;48.95;46.58;;;;;;;25.44;43.23;100699.44;5051133;28;20056;-77
2022/06/25 00:15:57;;;;;;;49.33;46.92;;;;;;;25.41;43.71;100698.19;5051164;28;20120;-73
2022/06/25 00:18:22;;;;;;;48.35;46.05;;;;;;;25.40;43.33;100702.09;5052042;28;20075;-79
2022/06/25 00:20:48;;;;;;;48.88;46.45;;;;;;;25.38;43.30;100703.59;5046700;28;20485;-79
2022/06/25 00:23:14;;;;;;;48.28;45.67;;;;;;;25.36;43.66;100703.94;5031583;28;20084;-79
2022/06/25 00:25:39;;;;;;;49.33;46.90;;;;;;;25.34;43.62;100695.16;5022103;28;20040;-78
2022/06/25 00:28:06;;;;;;;48.88;46.47;;;;;;;25.32;43.75;100700.22;5049572;28;20037;-78
2022/06/25 00:30:32;;;;;;;48.92;46.60;;;;;;;25.31;43.58;100704.16;5050981;28;20024;-79
2022/06/25 00:32:57;;;;;;;49.22;46.88;;;;;;;25.28;43.64;100706.81;5044071;28;20033;-74
2022/06/25 00:35:23;;;;;;;46.53;44.22;;;;;;;25.26;43.66;100707.16;5031707;28;20037;-79
2022/06/25 00:37:48;;;;;;;47.05;44.75;;;;;;;25.24;43.54;100706.69;5036893;28;20057;-79
2022/06/25 00:40:14;;;;;;;54.38;51.78;;;;;;;25.23;43.87;100713.38;5051256;28;20074;-78
2022/06/25 00:42:43;;;;;;;47.80;45.10;;;;;;;25.19;43.94;100707.69;5068688;28;20089;-79
2022/06/25 00:45:09;;;;;;;48.40;45.60;;;;;;;25.17;43.61;100711.97;5032714;28;20131;-78
2022/06/25 00:47:34;;;;;;;47.45;45.17;;;;;;;25.15;43.73;100709.53;5031899;28;20113;-78
2022/06/25 00:50:00;;;;;;;51.22;48.63;;;;;;;25.13;43.70;100709.06;5050155;28;20041;-74
2022/06/25 00:52:26;;;;;;;49.42;47.13;;;;;;;25.12;43.99;100712.16;5064972;28;20102;-80
2022/06/25 00:54:53;;;;;;;48.60;46.30;;;;;;;25.09;44.02;100716.41;5054545;28;20037;-78
2022/06/25 00:57:27;;;;;;;45.83;43.33;;;;;;;25.07;44.02;100713.16;5044150;28;20121;-78
2022/06/25 00:59:57;;;;;;;46.35;43.85;;;;;;;25.04;43.53;100716.63;5030636;28;20033;-78
2022/06/25 01:02:23;;;;;;;46.63;44.42;;;;;;;25.01;43.60;100729.16;5051470;28;20105;-78
2022/06/25 01:04:50;;;;;;;46.90;44.50;;;;;;;24.99;44.09;100730.66;5058240;28;20481;-79
2022/06/25 01:07:18;;;;;;;48.53;46.22;;;;;;;24.98;44.18;100737.34;5039086;28;20657;-78
2022/06/25 01:09:48;;;;;;;47.33;44.97;;;;;;;24.95;43.95;100736.06;5031938;28;20099;-79
2022/06/25 01:12:14;;;;;;;46.35;44.05;;;;;;;24.93;43.82;100724.53;5036679;28;20358;-78
2022/06/25 01:14:40;;;;;;;44.83;42.63;;;;;;;24.91;43.79;100732.34;5044548;28;20051;-78
2022/06/25 01:17:10;;;;;;;46.47;44.10;;;;;;;24.89;44.04;100736.59;5031278;28;20359;-78
2022/06/25 01:19:36;;;;;;;46.03;43.72;;;;;;;24.88;44.07;100741.34;5031261;28;20037;-78
2022/06/25 01:22:08;;;;;;;48.78;46.17;;;;;;;24.86;43.79;100737.28;5034267;28;20095;-78
2022/06/25 01:24:34;;;;;;;47.67;45.30;;;;;;;24.83;43.95;100736.81;5035425;28;20080;-79
2022/06/25 01:27:00;;;;;;;43.60;41.40;;;;;;;24.81;43.77;100747.41;5031727;28;20037;-78
2022/06/25 01:29:25;;;;;;;45.38;43.13;;;;;;;24.79;43.57;100749.69;5038268;28;20115;-78
2022/06/25 01:31:51;;;;;;;45.83;43.53;;;;;;;24.76;43.97;100753.13;5043654;28;20110;-79
2022/06/25 01:34:17;;;;;;;47.03;44.75;;;;;;;24.75;43.61;100753.50;5042976;28;20052;-78
2022/06/25 01:36:43;;;;;;;42.95;40.75;;;;;;;24.73;43.75;100750.25;5035128;28;20025;-78
2022/06/25 01:39:08;;;;;;;47.25;45.05;;;;;;;24.71;44.22;100756.09;5040428;28;20504;-78
2022/06/25 01:41:33;;;;;;;43.60;41.45;;;;;;;24.70;43.55;100757.25;5041999;28;20029;-76
2022/06/25 01:43:59;;;;;;;45.20;42.85;;;;;;;24.68;43.65;100754.03;5036499;28;20068;-78
2022/06/25 01:46:24;;;;;;;42.53;40.42;;;;;;;24.66;43.59;100761.03;5031014;28;20087;-78
2022/06/25 01:48:50;;;;;;;43.90;41.75;;;;;;;24.63;44.10;100757.00;5041465;28;20048;-78
2022/06/25 01:51:16;;;;;;;44.85;42.65;;;;;;;24.61;43.46;100764.78;5033242;28;20501;-78
2022/06/25 01:53:42;;;;;;;45.15;42.95;;;;;;;24.60;44.07;100763.19;5031447;28;20493;-78
2022/06/25 01:56:08;;;;;;;44.67;42.08;;;;;;;24.57;44.18;100764.69;5031781;28;20037;-77
2022/06/25 01:58:33;;;;;;;45.83;43.55;;;;;;;24.56;44.09;100779.59;5052421;28;20032;-77
2022/06/25 02:00:59;;;;;;;44.70;42.50;;;;;;;24.53;43.70;100773.97;5034772;28;20175;-76
2022/06/25 02:03:25;;;;;;;44.45;42.15;;;;;;;24.51;44.10;100777.06;5033826;28;20100;-76
2022/06/25 02:05:57;;;;;;;44.10;41.95;;;;;;;24.50;43.86;100780.16;5035323;28;20029;-76
2022/06/25 02:08:28;;;;;;;45.97;43.67;;;;;;;24.48;43.71;100779.69;5043130;28;20033;-75
2022/06/25 02:10:56;;;;;;;44.17;41.92;;;;;;;24.46;43.99;100785.53;5057400;28;20032;-77
2022/06/25 02:13:22;;;;;;;44.47;42.28;;;;;;;24.44;44.01;100781.47;5055781;28;20165;-74
2022/06/25 02:15:47;;;;;;;42.83;40.58;;;;;;;24.41;43.73;100792.03;5057521;28;20112;-74
2022/06/25 02:18:13;;;;;;;48.00;45.60;;;;;;;24.39;43.83;100786.06;5056896;28;20033;-76
2022/06/25 02:20:39;;;;;;;43.75;41.55;;;;;;;24.38;43.68;100794.66;5055474;28;20116;-75
2022/06/25 02:23:06;;;;;;;44.85;42.75;;;;;;;24.36;43.90;100794.19;5056696;28;20033;-75
2022/06/25 02:25:31;;;;;;;43.25;41.15;;;;;;;24.34;44.08;100790.94;5057219;28;20035;-75
2022/06/25 02:27:57;;;;;;;44.78;42.58;;;;;;;24.33;43.71;100794.84;5057179;28;20123;-75
2022/06/25 02:30:22;;;;;;;44.85;42.55;;;;;;;24.30;44.01;100795.53;5056599;28;20033;-75
2022/06/25 02:32:47;;;;;;;44.05;41.90;;;;;;;24.28;44.04;100797.81;5057219;28;20037;-75
2022/06/25 02:35:13;;;;;;;42.83;40.75;;;;;;;24.26;44.20;100797.34;5056597;28;20091;-77
2022/06/25 02:37:39;;;;;;;45.92;43.72;;;;;;;24.25;44.25;100806.75;5056537;28;20056;-76
2022/06/25 02:40:05;;;;;;;46.50;44.20;;;;;;;24.23;44.13;100812.59;5056501;28;20048;-76
2022/06/25 02:42:34;;;;;;;44.20;42.10;;;;;;;24.21;43.88;100814.88;5056115;28;20035;-76
2022/06/25 02:45:00;;;;;;;44.33;42.13;;;;;;;24.19;44.13;100811.66;5056342;28;20040;-76
2022/06/25 02:47:26;;;;;;;43.95;41.63;;;;;;;24.17;43.60;100825.00;5056227;28;20048;-75
2022/06/25 02:49:51;;;;;;;43.35;40.88;;;;;;;24.14;43.59;100832.00;5056340;28;20116;-75
2022/06/25 02:52:16;;;;;;;44.85;42.35;;;;;;;24.13;44.12;100832.31;5056432;28;20461;-75
2022/06/25 02:54:41;;;;;;;42.85;40.65;;;;;;;24.09;44.11;100832.19;5056254;28;20037;-76
2022/06/25 02:59:51;;;;;;;43.90;41.53;;;;;;;24.06;43.82;100824.53;5056775;28;20055;-76
2022/06/25 03:02:17;;;;;;;42.65;40.53;;;;;;;24.03;44.04;100824.41;5055775;28;20388;-76
2022/06/25 03:04:42;;;;;;;42.50;40.40;;;;;;;24.01;44.21;100826.69;5056651;28;20063;-76
2022/06/25 03:07:08;;;;;;;44.80;42.63;;;;;;;24.00;43.87;100831.41;5055873;28;20120;-74
2022/06/25 03:09:33;;;;;;;42.50;40.17;;;;;;;23.98;43.75;100836.44;5055375;28;20033;-76
2022/06/25 03:11:59;;;;;;;42.22;40.08;;;;;;;23.96;43.75;100828.50;5055910;28;20075;-74
2022/06/25 03:14:24;;;;;;;42.88;40.58;;;;;;;23.94;44.26;100835.50;5054800;28;20044;-77
2022/06/25 03:16:50;;;;;;;41.63;39.60;;;;;;;23.92;43.70;100827.53;5055902;28;20370;-77
2022/06/25 03:19:15;;;;;;;45.47;43.22;;;;;;;23.90;43.65;100832.56;5054620;28;20112;-74
2022/06/25 03:21:40;;;;;;;42.00;39.70;;;;;;;23.90;44.10;100829.00;5056340;28;20360;-75
2022/06/25 03:24:06;;;;;;;41.50;39.50;;;;;;;23.87;44.13;100835.19;5037674;28;20084;-77
2022/06/25 03:26:31;;;;;;;43.72;41.33;;;;;;;23.85;43.85;100831.94;5055623;28;20057;-76
2022/06/25 03:28:56;;;;;;;42.03;39.63;;;;;;;23.83;43.88;100837.78;5055653;28;20033;-76
2022/06/25 03:31:22;;;;;;;44.45;42.08;;;;;;;23.82;44.00;100832.63;5055838;28;20037;-77
2022/06/25 03:33:48;;;;;;;42.95;40.85;;;;;;;23.80;43.81;100835.69;5055557;28;20032;-76
2022/06/25 03:36:14;;;;;;;42.92;40.72;;;;;;;23.77;43.81;100841.06;5055722;28;20059;-72
2022/06/25 03:38:39;;;;;;;42.58;40.58;;;;;;;23.75;43.90;100842.19;5055401;28;20128;-75
2022/06/25 03:43:49;;;;;;;44.85;42.28;;;;;;;23.70;43.95;100839.59;5055302;28;20120;-77
2022/06/25 03:46:15;;;;;;;42.50;40.42;;;;;;;23.69;43.84;100834.41;5055232;28;20120;-73
2022/06/25 03:48:40;;;;;;;42.45;40.38;;;;;;;23.68;44.40;100849.31;5055195;28;20029;-75
2022/06/25 03:51:06;;;;;;;42.20;40.20;;;;;;;23.66;44.33;100848.84;5055115;28;20033;-75
2022/06/25 03:53:31;;;;;;;43.75;41.55;;;;;;;23.64;44.09;100851.94;5055069;28;20063;-75
2022/06/25 03:55:56;;;;;;;43.67;40.83;;;;;;;23.62;43.95;100843.19;5055435;28;20033;-74
2022/06/25 03:58:22;;;;;;;43.03;40.85;;;;;;;23.61;44.40;100849.00;5054718;28;20103;-75
2022/06/25 04:00:47;;;;;;;41.45;39.35;;;;;;;23.58;44.33;100850.47;5054135;28;20044;-75
2022/06/25 04:03:13;;;;;;;42.20;40.10;;;;;;;23.57;44.38;100842.56;5054709;28;20116;-76
2022/06/25 04:05:39;;;;;;;44.38;42.17;;;;;;;23.55;44.04;100853.91;5055080;28;20370;-76
2022/06/25 04:08:04;;;;;;;43.80;41.38;;;;;;;23.52;44.15;100849.03;5054863;28;20029;-77
2022/06/25 04:10:30;;;;;;;43.65;41.45;;;;;;;23.51;44.46;100845.47;5054500;28;20395;-76
2022/06/25 04:12:55;;;;;;;42.60;40.33;;;;;;;23.50;44.04;100859.59;5053546;28;20029;-76
2022/06/25 04:15:20;;;;;;;43.63;41.35;;;;;;;23.48;43.88;100854.38;5054315;28;20057;-75
2022/06/25 04:17:46;;;;;;;42.53;40.15;;;;;;;23.45;43.84;100852.28;5055039;28;20476;-77
2022/06/25 04:20:11;;;;;;;43.40;41.30;;;;;;;23.43;44.54;100857.31;5053454;28;20167;-76
2022/06/25 04:22:37;;;;;;;41.95;39.95;;;;;;;23.43;44.03;100859.28;5054588;28;20029;-75
2022/06/25 04:25:03;;;;;;;41.22;39.13;;;;;;;23.42;44.46;100861.22;5053660;28;20049;-75
2022/06/25 04:30:12;;;;;;;41.78;39.50;;;;;;;23.37;44.30;100864.16;5055008;28;20044;-75
2022/06/25 04:32:38;;;;;;;41.05;39.05;;;;;;;23.37;44.18;100868.84;5054852;28;20482;-75
2022/06/25 04:35:04;;;;;;;41.83;39.72;;;;;;;23.34;43.99;100875.84;5054628;28;20029;-75
2022/06/25 04:37:29;;;;;;;42.25;40.15;;;;;;;23.33;44.62;100874.19;5054567;28;20112;-76
2022/06/25 04:39:54;;;;;;;41.08;38.97;;;;;;;23.33;44.16;100876.94;5054301;28;20082;-74
2022/06/25 04:42:20;;;;;;;42.63;40.53;;;;;;;23.30;44.58;100877.59;5052731;28;20037;-73
2022/06/25 04:44:45;;;;;;;41.42;39.33;;;;;;;23.29;43.99;100873.25;5054272;28;20029;-78
2022/06/25 04:47:10;;;;;;;41.45;39.35;;;;;;;23.27;44.26;100883.78;5054686;28;20033;-75
2022/06/25 04:49:36;;;;;;;42.38;40.28;;;;;;;23.26;44.35;100879.41;5054056;28;20064;-75
2022/06/25 04:52:01;;;;;;;41.47;39.20;;;;;;;23.25;44.39;100889.59;5054147;28;20051;-76
2022/06/25 04:54:27;;;;;;;44.25;41.95;;;;;;;23.24;44.54;100879.72;5053677;28;20037;-76
2022/06/25 04:56:52;;;;;;;41.55;39.55;;;;;;;23.23;44.59;100888.31;5054032;28;20464;-77
2022/06/25 04:59:18;;;;;;;40.83;38.75;;;;;;;23.21;44.42;100888.66;5053982;28;20025;-77
2022/06/25 05:01:44;;;;;;;40.53;38.42;;;;;;;23.20;44.27;100889.75;5053845;28;20040;-74
2022/06/25 05:04:10;;;;;;;41.45;39.17;;;;;;;23.20;44.85;100886.19;5054021;28;20040;-74
2022/06/25 05:06:35;;;;;;;41.55;39.35;;;;;;;23.19;44.27;100895.63;5053907;28;20029;-76
2022/06/25 05:09:00;;;;;;;40.53;38.53;;;;;;;23.18;44.32;100902.25;5053663;28;20151;-77
2022/06/25 05:11:26;;;;;;;42.83;40.53;;;;;;;23.17;44.40;100908.91;5054352;28;20071;-75
2022/06/25 05:13:51;;;;;;;42.28;40.20;;;;;;;23.16;44.96;100905.34;5054000;28;20473;-75
2022/06/25 05:16:17;;;;;;;41.03;39.03;;;;;;;23.15;44.93;100894.63;5053732;28;20037;-76
2022/06/25 05:18:43;;;;;;;43.20;40.65;;;;;;;23.14;44.93;100901.28;5053618;28;20036;-75
2022/06/25 05:21:08;;;;;;;42.00;39.90;;;;;;;23.13;44.99;100899.66;5054234;28;20353;-76
2022/06/25 05:23:33;;;;;;;41.88;39.58;;;;;;;23.12;44.87;100904.34;5053338;28;20473;-75
2022/06/25 05:25:59;;;;;;;41.58;39.47;;;;;;;23.10;44.79;100901.91;5054104;28;20488;-76
2022/06/25 05:28:24;;;;;;;41.28;38.78;;;;;;;23.10;44.83;100896.41;5053559;28;20438;-74
2022/06/25 05:30:50;;;;;;;41.05;39.05;;;;;;;23.10;44.88;100904.66;5053117;28;20040;-77
2022/06/25 05:33:15;;;;;;;42.08;39.97;;;;;;;23.10;45.23;100906.63;5053740;28;20029;-76
2022/06/25 05:35:40;;;;;;;42.03;39.58;;;;;;;23.08;45.20;100904.22;5053395;28;20115;-75
2022/06/25 05:38:07;;;;;;;40.50;38.40;;;;;;;23.09;45.30;100911.31;5053061;28;20094;-76
2022/06/25 05:40:33;;;;;;;41.50;39.45;;;;;;;23.08;45.46;100914.41;5053443;28;20032;-76
2022/06/25 05:42:58;;;;;;;41.40;39.42;;;;;;;23.07;45.58;100919.09;5052529;28;20033;-76
2022/06/25 05:45:23;;;;;;;41.17;38.88;;;;;;;23.08;45.37;100917.16;5053818;28;20377;-76
2022/06/25 05:47:49;;;;;;;40.03;38.08;;;;;;;23.08;45.24;100925.41;5053482;28;20044;-76
2022/06/25 05:50:14;;;;;;;40.83;38.83;;;;;;;23.07;45.65;100930.13;5053322;28;20033;-77
2022/06/25 05:52:40;;;;;;;41.58;39.40;;;;;;;23.08;45.11;100933.69;5052624;28;20036;-75
2022/06/25 05:55:06;;;;;;;40.65;38.55;;;;;;;23.07;45.46;100934.81;5053846;28;20079;-77
2022/06/25 05:57:32;;;;;;;41.25;39.20;;;;;;;23.07;45.60;100932.06;5053649;28;20036;-76
2022/06/25 05:59:58;;;;;;;42.22;40.13;;;;;;;23.07;46.01;100937.59;5053651;28;20083;-77
2022/06/25 06:02:26;;;;;;;41.05;38.85;;;;;;;23.07;45.67;100940.34;5052566;28;20033;-76
2022/06/25 06:04:51;;;;;;;40.20;37.78;;;;;;;23.07;45.74;100941.13;5053862;28;20045;-75
2022/06/25 06:07:17;;;;;;;42.28;40.17;;;;;;;23.08;45.84;100941.94;5054200;28;20057;-76
2022/06/25 06:09:42;;;;;;;42.75;40.55;;;;;;;23.08;46.17;100945.53;5053803;28;20029;-79
2022/06/25 06:12:08;;;;;;;40.00;37.80;;;;;;;23.08;46.31;100940.03;5054373;28;20032;-77
2022/06/25 06:14:33;;;;;;;40.33;38.33;;;;;;;23.09;45.99;100946.34;5054715;28;20462;-77
2022/06/25 06:16:58;;;;;;;39.83;37.72;;;;;;;23.10;46.21;100951.50;5054500;28;20083;-76
2022/06/25 06:19:24;;;;;;;40.72;38.50;;;;;;;23.11;45.91;100950.41;5053653;28;20481;-76
2022/06/25 06:21:49;;;;;;;40.17;38.08;;;;;;;23.12;45.95;100948.44;5051994;28;20051;-75
2022/06/25 06:24:15;;;;;;;40.83;38.72;;;;;;;23.14;46.09;100954.44;5052573;28;20413;-75
2022/06/25 06:26:40;;;;;;;42.00;39.70;;;;;;;23.17;45.92;100961.25;5053715;28;20072;-75
2022/06/25 06:29:05;;;;;;;41.10;38.92;;;;;;;23.17;46.53;100959.31;5051692;28;20535;-76
2022/06/25 06:31:31;;;;;;;40.58;38.38;;;;;;;23.20;46.11;100966.13;5052841;28;20064;-74
2022/06/25 06:33:57;;;;;;;40.00;38.03;;;;;;;23.21;46.49;100971.31;5052890;28;20040;-77
2022/06/25 06:36:22;;;;;;;41.47;39.33;;;;;;;23.24;46.36;100969.88;5052810;28;20033;-77
2022/06/25 06:38:48;;;;;;;42.35;40.13;;;;;;;23.26;46.24;100976.69;5052857;28;20033;-75
2022/06/25 06:41:13;;;;;;;39.92;37.72;;;;;;;23.26;46.05;100984.94;5053083;28;20342;-75
2022/06/25 06:43:42;;;;;;;42.63;40.33;;;;;;;23.31;46.91;100979.28;5054286;28;20377;-75
2022/06/25 06:46:07;;;;;;;;;;;;;;;23.30;46.48;100985.91;5056690;28;20029;-75
2022/06/25 06:48:32;;;;;;;38.92;36.67;;;;;;;23.32;46.32;100985.59;5056906;28;19935;-74
2022/06/25 06:50:58;;;;;;;39.03;37.10;;;;;;;23.35;46.04;100984.13;5056101;28;20045;-76
2022/06/25 06:53:23;;;;;;;40.95;38.85;;;;;;;23.36;45.97;100981.06;5056346;28;20068;-75
2022/06/25 06:55:50;;;;;;;42.42;40.00;;;;;;;23.37;46.44;100988.19;5056263;28;20072;-75
2022/06/25 06:58:17;;;;;;;41.70;39.58;;;;;;;23.39;46.13;100988.69;5056241;28;20037;-79
2022/06/25 07:00:42;;;;;;;42.33;40.22;;;;;;;23.41;46.77;100991.09;5056094;28;20057;-76
2022/06/25 07:03:08;;;;;;;41.88;39.78;;;;;;;23.41;46.10;100988.34;5056417;28;20057;-78
2022/06/25 07:05:33;;;;;;;40.65;38.65;;;;;;;23.43;46.12;100980.56;5056052;28;20041;-74
2022/06/25 07:07:58;;;;;;;41.38;39.08;;;;;;;23.45;46.29;100981.06;5055890;28;20086;-77
2022/06/25 07:10:24;;;;;;;41.38;39.05;;;;;;;23.47;46.09;100987.88;5056129;28;20451;-78
2022/06/25 07:12:49;;;;;;;42.03;39.92;;;;;;;23.49;46.63;100982.03;5056081;28;20045;-76
2022/06/25 07:15:15;;;;;;;42.88;40.35;;;;;;;23.50;46.45;100986.41;5055907;28;20052;-77
2022/06/25 07:17:41;;;;;;;43.00;40.63;;;;;;;23.51;46.45;100988.03;5055761;28;20083;-75
2022/06/25 07:20:07;;;;;;;42.75;40.20;;;;;;;23.54;46.43;100984.63;5055510;28;20473;-78
2022/06/25 07:22:32;;;;;;;42.55;39.85;;;;;;;23.55;46.74;100994.53;5055754;28;20117;-75
2022/06/25 07:24:58;;;;;;;40.42;38.05;;;;;;;23.57;46.77;100996.97;5054261;28;20135;-75
2022/06/25 07:27:23;;;;;;;41.67;39.35;;;;;;;23.59;46.55;101001.03;5055704;28;20033;-74
2022/06/25 07:29:49;;;;;;;42.22;39.70;;;;;;;23.61;46.32;101004.25;5054293;28;20033;-76
2022/06/25 07:32:14;;;;;;;39.42;37.05;;;;;;;23.62;46.55;101005.06;5055828;28;20517;-75
2022/06/25 07:34:40;;;;;;;41.20;38.70;;;;;;;23.63;46.57;101003.94;5037956;28;20051;-78
2022/06/25 07:37:05;;;;;;;39.50;37.50;;;;;;;23.64;46.60;100998.09;5055521;28;20393;-77
2022/06/25 07:39:30;;;;;;;40.08;37.95;;;;;;;23.66;46.39;101003.28;5054163;28;20124;-78
2022/06/25 07:41:56;;;;;;;41.03;38.83;;;;;;;23.67;46.69;101008.47;5054347;28;20414;-75
2022/06/25 07:44:22;;;;;;;41.28;38.90;;;;;;;23.68;46.12;101006.50;5054037;28;20098;-75
2022/06/25 07:46:47;;;;;;;40.70;38.40;;;;;;;23.69;46.28;101006.22;5055343;28;20044;-72
2022/06/25 07:49:13;;;;;;;42.17;40.05;;;;;;;23.72;46.13;101015.78;5054068;28;20037;-73
2022/06/25 07:51:59;;;;;;;40.15;38.15;;;;;;;23.72;45.97;101013.84;5055152;28;20033;-72
2022/06/25 07:54:29;;;;;;;40.55;38.55;;;;;;;23.75;46.39;101009.63;5054821;28;20041;-74
2022/06/25 07:56:55;;;;;;;42.85;40.65;;;;;;;23.76;46.26;101005.72;5055335;28;20044;-73
2022/06/25 07:59:22;;;;;;;41.33;39.08;;;;;;;23.77;45.82;101001.03;5054823;28;20037;-75
2022/06/25 08:01:48;;;;;;;42.85;40.45;;;;;;;23.79;46.59;101005.09;5054635;28;20029;-73
2022/06/25 08:04:14;;;;;;;41.97;39.63;;;;;;;23.80;46.37;101005.91;5055170;28;20036;-73
2022/06/25 08:06:41;;;;;;;41.85;39.55;;;;;;;23.81;46.60;101008.31;5054898;28;20036;-74
2022/06/25 08:09:07;;;;;;;40.05;38.08;;;;;;;23.82;46.22;101006.41;5054888;28;20056;-74
2022/06/25 08:11:32;;;;;;;41.40;39.28;;;;;;;23.85;46.15;101005.72;5054808;28;20116;-74
2022/06/25 08:13:58;;;;;;;41.38;39.25;;;;;;;23.86;46.15;101007.34;5053416;28;20128;-74
2022/06/25 08:16:25;;;;;;;41.72;39.72;;;;;;;23.87;46.25;101000.72;5054841;28;20460;-74
2022/06/25 08:18:51;;;;;;;41.85;39.75;;;;;;;23.89;46.56;101001.16;5053416;28;20032;-74
2022/06/25 08:21:16;;;;;;;42.35;40.13;;;;;;;23.90;45.91;101000.06;5054603;28;20032;-74
2022/06/25 08:23:42;;;;;;;41.30;39.20;;;;;;;23.91;46.22;100999.72;5052961;28;20474;-73
2022/06/25 08:26:07;;;;;;;42.65;40.65;;;;;;;23.93;45.90;100997.44;5053826;28;20029;-74
2022/06/25 08:28:32;;;;;;;41.58;39.47;;;;;;;23.94;46.34;101003.78;5054725;28;20029;-75
2022/06/25 08:30:58;;;;;;;42.67;40.47;;;;;;;23.96;46.31;101007.00;5054334;28;20456;-75
2022/06/25 08:33:23;;;;;;;43.22;41.13;;;;;;;23.98;45.98;101010.25;5053105;28;20033;-75
2022/06/25 08:35:49;;;;;;;42.90;40.50;;;;;;;23.98;46.01;101002.78;5052930;28;20036;-74
2022/06/25 08:38:16;;;;;;;44.28;41.90;;;;;;;24.02;46.36;101018.72;5054520;28;20079;-73
2022/06/25 08:40:42;;;;;;;41.80;39.63;;;;;;;24.03;46.43;101012.03;5054616;28;20044;-72
2022/06/25 08:43:08;;;;;;;41.75;39.72;;;;;;;24.05;46.53;101018.03;5054769;28;20037;-73
2022/06/25 08:45:33;;;;;;;44.17;41.60;;;;;;;24.07;46.50;101010.25;5054095;28;20404;-74
2022/06/25 08:48:01;;;;;;;44.33;42.03;;;;;;;24.07;46.13;101016.59;5054256;28;20492;-73
2022/06/25 08:50:27;;;;;;;43.47;41.25;;;;;;;24.09;46.54;101019.00;5054058;28;20514;-74
2022/06/25 08:52:54;;;;;;;43.90;41.58;;;;;;;24.10;46.33;101015.91;5054263;28;20032;-73
2022/06/25 08:55:32;;;;;;;43.75;41.65;;;;;;;24.15;46.02;101023.22;5053966;28;20119;-74
2022/06/25 08:58:00;;;;;;;42.47;40.38;;;;;;;24.15;46.48;101025.97;5052725;28;20428;-73
2022/06/25 09:00:26;;;;;;;42.22;40.13;;;;;;;24.17;46.73;101029.22;5054106;28;20029;-74
2022/06/25 09:02:51;;;;;;;42.58;40.47;;;;;;;24.19;46.63;101029.69;5053765;28;20037;-83
2022/06/25 09:05:23;;;;;;;42.85;40.75;;;;;;;24.21;46.21;101026.63;5035505;28;20033;-75
2022/06/25 09:07:56;;;;;;;43.63;41.33;;;;;;;24.22;46.54;101026.28;5054082;28;20048;-76
2022/06/25 09:10:25;;;;;;;44.63;42.42;;;;;;;24.23;46.36;101022.38;5054375;28;20111;-78
2022/06/25 09:12:52;;;;;;;45.45;43.25;;;;;;;24.26;46.64;101023.69;5053714;28;20037;-78
2022/06/25 09:15:19;;;;;;;42.97;40.78;;;;;;;24.27;46.43;101017.84;5054639;28;20116;-76
2022/06/25 09:17:52;;;;;;;42.80;40.70;;;;;;;24.29;46.63;101018.31;5053753;28;20029;-76
2022/06/25 09:20:19;;;;;;;41.80;39.80;;;;;;;24.30;46.08;101014.41;5053820;28;20513;-77
2022/06/25 09:22:57;;;;;;;43.53;41.33;;;;;;;24.32;46.24;101017.66;5053303;28;20040;-74
2022/06/25 09:25:27;;;;;;;44.53;41.60;;;;;;;24.34;46.82;101017.31;5052571;28;20112;-70
2022/06/25 09:27:55;;;;;;;45.80;43.22;;;;;;;24.35;46.40;101016.19;5054604;28;20044;-77
2022/06/25 09:30:22;;;;;;;44.00;41.22;;;;;;;24.37;46.64;101013.91;5052270;28;20057;-76
2022/06/25 09:32:48;;;;;;;44.20;41.78;;;;;;;24.37;46.86;101014.72;5053521;28;20087;-78
2022/06/25 09:35:29;;;;;;;44.90;42.53;;;;;;;24.40;47.31;101014.06;5053557;28;20423;-75
2022/06/25 09:38:00;;;;;;;44.50;42.10;;;;;;;24.41;47.02;101012.91;5053993;28;20033;-79
2022/06/25 09:40:26;;;;;;;45.72;43.17;;;;;;;24.44;47.33;101016.97;5053902;28;20098;-82
2022/06/25 09:42:51;;;;;;;44.85;42.55;;;;;;;24.46;47.10;101011.94;5053672;28;20416;-83
2022/06/25 09:45:17;;;;;;;43.35;41.05;;;;;;;24.49;46.78;101013.25;5053837;28;20119;-80
2022/06/25 09:47:44;;;;;;;44.28;42.08;;;;;;;24.51;47.11;101020.06;5053290;28;20036;-80
2022/06/25 09:50:14;;;;;;;44.70;42.50;;;;;;;24.53;47.16;101015.00;5055196;28;20100;-85
2022/06/25 09:53:09;;;;;;;47.05;44.38;;;;;;;24.56;47.17;101017.13;5054077;28;20044;-82
2022/06/25 09:55:39;;;;;;;44.80;42.67;;;;;;;24.58;46.56;101025.06;5049649;28;20049;-84
2022/06/25 09:58:05;;;;;;;46.97;44.47;;;;;;;24.60;46.73;101020.03;5053566;28;20033;-81
2022/06/25 10:00:31;;;;;;;43.35;41.25;;;;;;;24.63;46.50;101022.13;5053290;28;20461;-81
2022/06/25 10:02:58;;;;;;;47.97;45.47;;;;;;;24.64;46.40;101029.25;5053044;28;20488;-82
2022/06/25 10:05:34;;;;;;;46.03;43.72;;;;;;;24.69;46.67;101026.31;5053301;28;20087;-79
2022/06/25 10:08:04;;;;;;;47.38;44.88;;;;;;;24.70;46.84;101022.44;5053146;28;20024;-78
2022/06/25 10:10:44;;;;;;;45.47;43.20;;;;;;;24.72;46.58;101022.91;5053389;28;20031;-79
2022/06/25 10:13:10;;;;;;;44.10;41.53;;;;;;;24.74;46.38;101020.59;5053737;28;20029;-84
2022/06/25 10:15:36;;;;;;;44.75;42.55;;;;;;;24.76;46.89;101014.75;5053060;28;20048;-77
2022/06/25 10:18:04;;;;;;;45.53;43.10;;;;;;;24.80;46.33;101016.53;5055496;28;20527;-76
2022/06/25 10:20:31;;;;;;;46.72;43.80;;;;;;;24.83;47.04;101015.88;5058039;28;20037;-82
2022/06/25 10:22:59;;;;;;;47.42;45.05;;;;;;;24.86;46.91;101014.38;5057454;28;20120;-77
2022/06/25 10:25:25;;;;;;;;;;;;;;;24.86;46.41;101016.34;5056323;28;20037;-78
2022/06/25 10:28:22;;;;;;;44.67;42.47;;;;;;;24.87;46.44;101013.22;5057836;28;19928;-75
2022/06/25 10:30:50;;;;;;;43.75;41.55;;;;;;;24.90;46.92;101009.81;5057468;28;20060;-79
2022/06/25 10:33:21;;;;;;;43.80;41.70;;;;;;;24.93;46.30;101006.38;5056932;28;20477;-78
2022/06/25 10:35:48;;;;;;;45.70;43.28;;;;;;;24.95;46.35;101008.84;5056772;28;20033;-80
2022/06/25 10:38:16;;;;;;;45.28;43.08;;;;;;;24.98;46.76;101005.38;5055375;28;20033;-78
2022/06/25 10:40:46;;;;;;;45.10;42.92;;;;;;;25.00;46.82;101020.50;5056728;28;20473;-78
2022/06/25 10:43:38;;;;;;;45.25;43.05;;;;;;;25.03;46.55;101008.75;5056834;28;20033;-79
2022/06/25 10:46:25;;;;;;;44.80;42.60;;;;;;;25.05;46.16;101009.25;5056569;28;20021;-79
2022/06/25 10:49:17;;;;;;;47.63;45.13;;;;;;;25.09;46.08;101008.56;5057232;28;20051;-78
2022/06/25 10:51:45;;;;;;;47.00;44.65;;;;;;;25.12;46.37;101013.41;5057340;28;20033;-78
2022/06/25 10:54:35;;;;;;;47.42;44.97;;;;;;;25.14;46.06;101008.38;5056086;28;20040;-78
2022/06/25 10:57:02;;;;;;;46.58;44.30;;;;;;;25.16;46.30;101006.94;5056649;28;20037;-80
2022/06/25 10:59:39;;;;;;;47.10;44.80;;;;;;;25.18;46.03;101010.16;5056455;28;20071;-81
2022/06/25 11:02:10;;;;;;;47.00;44.65;;;;;;;25.21;46.42;101006.72;5056932;28;20143;-79
2022/06/25 11:04:37;;;;;;;44.78;42.50;;;;;;;25.24;46.31;101013.53;5056341;28;20078;-81
2022/06/25 11:07:13;;;;;;;46.38;43.85;;;;;;;25.27;45.80;101018.41;5056870;28;20040;-72
2022/06/25 11:09:50;;;;;;;45.33;43.17;;;;;;;25.28;46.09;101003.44;5056297;28;20357;-80
2022/06/25 11:12:16;;;;;;;47.03;44.63;;;;;;;25.30;45.91;101012.22;5056636;28;20025;-79
2022/06/25 11:14:42;;;;;;;47.47;45.25;;;;;;;25.32;45.96;101004.38;5056297;28;20032;-78
2022/06/25 11:17:09;;;;;;;47.42;45.03;;;;;;;25.35;46.04;101023.06;5056052;28;20044;-78